Address 0x1d933fd71ff07e69f066d50b39a7c34eb3b69f05 7

 
 
Txn Hash Method
Block
From
To
Value [Txn Fee]
0x2d4c0292a0d48f356ee827fed6053c9fca1924f22af7d96887bd3d78f0c1f968Transfer292609072022-06-07 3:52:11121 days 13 hrs ago0x1d933fd71ff07e69f066d50b39a7c34eb3b69f05OUT 0x3066818837c5e6ed6601bd5a91b0762877a6b7310 MATIC0.0017196 30.000000016
0x956cada50dd69a001f4334d825babdb3bc56aaa7df5dcd6d70d97a4461a110bcTransfer288169372022-05-27 3:39:09132 days 13 hrs ago0x1d933fd71ff07e69f066d50b39a7c34eb3b69f05OUT Wrapped BTC: WBTC Token0 MATIC0.001062892481 30.03030121
0x21b475808b23bd57dd6285c76b7873c249dff9a2629c543c45285921d8cf7514Transfer287625922022-05-25 18:42:57133 days 22 hrs ago0x1d933fd71ff07e69f066d50b39a7c34eb3b69f05OUT USD Coin0 MATIC0.001333243976 31.990689526
0xd0c1511c7021eac53e393fa3241ca9eda11462609fba8f2eb47fac3edf9246d8Transfer286775572022-05-23 16:23:03136 days 1 hr ago0x1d933fd71ff07e69f066d50b39a7c34eb3b69f05OUT Maker: Dai Stablecoin0 MATIC0.001764323636 33.599764554
0x99a47d6182d0f23e61d3e94a4c75aa4a0966ac673c22cbb3deba9f7935868bf7Transfer286775192022-05-23 16:21:47136 days 1 hr ago0x1d933fd71ff07e69f066d50b39a7c34eb3b69f05OUT Wrapped BTC: WBTC Token0 MATIC0.001822479902 34.717870668
0xe453eb39f094c905fb9b2b77ceb65da9d53cd2cfe68cefc76774bc43cfc235e3Transfer286774792022-05-23 16:20:23136 days 1 hr ago0x1d933fd71ff07e69f066d50b39a7c34eb3b69f05OUT USD Coin0 MATIC0.002833063075 44.578661179
0x4f55261ffd56a69b892878301607bb4d9fa0597b5631ddfcbe7af2a7e1cf61a9Transfer286772562022-05-23 16:12:45136 days 1 hr ago0x1d933fd71ff07e69f066d50b39a7c34eb3b69f05OUT Wrapped Ether0 MATIC0.001562518701 33.116839075
0x30c52ed25f80e4a7a82d17443bdf2ddb8b156f6fa0c82dda0273f697cc489ebaTransfer265450672022-03-30 16:23:46190 days 1 hr ago0x1d933fd71ff07e69f066d50b39a7c34eb3b69f05OUT0xcc400c09ecbac3e0033e4587bdfaabb26223e37d1 MATIC0.000699652492 33.316785373
0xcd8915cb3f19c5a70bfc99e53f1a0806589d34e8fce619c819d0307c831237b0Add Liquidity265165402022-03-29 22:54:39190 days 18 hrs ago0x1d933fd71ff07e69f066d50b39a7c34eb3b69f05OUT Tetu: TetuSwap Router0 MATIC0.02481565179 31.94016
0xb5fe02c36117fc3db5271a2f9f00e6fe5ee08e4e0ac75bb8949140a040106f71Approve265164722022-03-29 22:52:19190 days 18 hrs ago0x1d933fd71ff07e69f066d50b39a7c34eb3b69f05OUT 0x3066818837c5e6ed6601bd5a91b0762877a6b7310 MATIC0.001046312228 30.167000013
0x5e58f455e6f5245492a48f16c7ae2395fbba92aca7ae46039ff6531a83a883fbApprove265164512022-03-29 22:51:37190 days 18 hrs ago0x1d933fd71ff07e69f066d50b39a7c34eb3b69f05OUT USD Coin0 MATIC0.001245621865 30.373612911
0x8bfd81da15d74d22b1ed23fdec51412f42138d9fef73b4d8cf67dd801b18cad3Swap Exact Token...265164152022-03-29 22:50:21190 days 18 hrs ago0x1d933fd71ff07e69f066d50b39a7c34eb3b69f05OUT Tetu: TetuSwap Router0 MATIC0.028248333978 31.049700013
0xa0bd8a8081e154133d61c526624bab76f6177b37ecf9c0623cc59fa69e220963Approve265163772022-03-29 22:49:05190 days 18 hrs ago0x1d933fd71ff07e69f066d50b39a7c34eb3b69f05OUT 0x3066818837c5e6ed6601bd5a91b0762877a6b7310 MATIC0.001620533844 31.301356797
0xdaeffa5409de42e65b80dc50ef791fb9815b66563ac30abf8128634659e33035Swap Tokens For ...265163222022-03-29 22:47:11190 days 18 hrs ago0x1d933fd71ff07e69f066d50b39a7c34eb3b69f05OUT Tetu: TetuSwap Router0 MATIC0.03148426776 32.010000001
0x792d2f01976e09291c3d1b482c23964c44ffb4c4d49cfa5221f0ab83f13ffbdbApprove265162942022-03-29 22:46:15190 days 18 hrs ago0x1d933fd71ff07e69f066d50b39a7c34eb3b69f05OUT USD Coin0 MATIC0.001780819896 30.652000006
0x3572c3405c00464c458675b527712db28957fa1de4c8d51e4fcd90d9bba04489Transfer265159742022-03-29 22:35:15190 days 18 hrs ago0x1d933fd71ff07e69f066d50b39a7c34eb3b69f05OUT 0x3066818837c5e6ed6601bd5a91b0762877a6b7310 MATIC0.00189001784 32.980000012
0xb4592d25fd0ff2380df5dd2151c94485ea9ac2e4e68694e66b81b8b723556683Create Proxy Wit...265107862022-03-29 19:16:28190 days 22 hrs ago0x1d933fd71ff07e69f066d50b39a7c34eb3b69f05OUT Safe: Proxy Factory 1.3.00 MATIC0.0099039535 30.1
0xadaf6193fbea9971270746f122b5f7c1dfda3565f0445e9f8c961813c00057a6Exec Transaction255412582022-03-03 18:16:30216 days 23 hrs ago0x1d933fd71ff07e69f066d50b39a7c34eb3b69f05OUT 0x7c7a1407c35b695e4ee530d80d4bd4c1af8569e50 MATIC0.0023759671 40.3
0xd075eb9a6298dfdcd4d7aee728e24d142ca94ec84686b037dadaa89dee5607a6Multicall254478372022-03-01 6:30:15219 days 10 hrs ago0x1d933fd71ff07e69f066d50b39a7c34eb3b69f05OUTUniswap V3: Router 20 MATIC0.004264013847 31.122144148
0x38385f6fcc19eaf9b04b6d851fcb11fc5497a4e09adab519e8e3c2b446b3d24dApprove254478052022-03-01 6:29:07219 days 11 hrs ago0x1d933fd71ff07e69f066d50b39a7c34eb3b69f05OUT USD Coin0 MATIC0.0019132543 32.931500235
0xc4dee09ab351843a82856007e6835e263883b6237ae3fe4bd62eec31a808efa0Transfer254477362022-03-01 6:26:29219 days 11 hrs ago0x1d933fd71ff07e69f066d50b39a7c34eb3b69f05OUT USD Coin0 MATIC0.001508095364 32.457286595
0x9704162c398a0dbc06e870bec1a99898023d5d43787d744cb79dd47c54183de5Transfer254475812022-03-01 6:19:17219 days 11 hrs ago0x1d933fd71ff07e69f066d50b39a7c34eb3b69f05OUT 0x3066818837c5e6ed6601bd5a91b0762877a6b7310 MATIC0.001313328088 37.053608179
0x135f5c52bd789b7061343f2819a5953824f4c1aba7ca316ba0636e20363d7679Transfer254474902022-03-01 6:16:11219 days 11 hrs ago0x1d933fd71ff07e69f066d50b39a7c34eb3b69f05OUT Wrapped Ether0 MATIC0.001440691346 30.542534373
0xab75c8fa65e12f5051b4abbbac6d1c9cf37b00f5ae3a14aaf62f6e6bff31b87bExec Transaction254322052022-02-28 19:57:16219 days 21 hrs ago0x1d933fd71ff07e69f066d50b39a7c34eb3b69f05OUT 0x7c7a1407c35b695e4ee530d80d4bd4c1af8569e50 MATIC0.002310204677 39.863418239
0xcc632d1f24db43fdb4709994e2b07cb208edb92c462d7763d55d69a91c2b457dTransfer252727192022-02-23 22:42:54224 days 18 hrs ago0x1d933fd71ff07e69f066d50b39a7c34eb3b69f05OUT 0x3066818837c5e6ed6601bd5a91b0762877a6b7310 MATIC0.001879825328 32.802145058
[ Download CSV Export 
Latest 4 internal transactions
Parent Txn Hash Block From To Value
0xd075eb9a6298dfdcd4d7aee728e24d142ca94ec84686b037dadaa89dee5607a6254478372022-03-01 6:30:15219 days 10 hrs ago Uniswap V3: Router 20x1d933fd71ff07e69f066d50b39a7c34eb3b69f055.237381019275365773 MATIC
0xeeac3574fb9835c4daaa6de171c1a3f33879b57d1aa9e318d6c052623e5d47cd254466332022-03-01 5:40:10219 days 11 hrs ago Polygon: Airdrop0x1d933fd71ff07e69f066d50b39a7c34eb3b69f050.1 MATIC
0x94d2dd56e0046f28912845be65492ad5523ffbf4976cd22d4469e9ea181178c3253022672022-02-24 21:28:26223 days 20 hrs ago 0x7c7a1407c35b695e4ee530d80d4bd4c1af8569e50x1d933fd71ff07e69f066d50b39a7c34eb3b69f050.001 MATIC
0x1b4e1a2fd581538430ef033bf8d6f4bfb1c918d32df858ec6e111a5404b16cd0252705382022-02-23 21:10:19224 days 20 hrs ago Polygon: Airdrop0x1d933fd71ff07e69f066d50b39a7c34eb3b69f050.1 MATIC
[ Download CSV Export 
Loading

Contract Name:
0 MATIC

Compiler Version
0

Optimization Enabled:
0 MATIC

Other Settings:
-NA-
Block Transaction Gas Used Reward
Age Block Fee Address BC Fee Address Voting Power Jailed Incoming
Block Uncle Number Difficulty Gas Used Reward
Loading
Loading
Make sure to use the "Vote Down" button for any spammy posts, and the "Vote Up" for interesting conversations.